Time;durP1;ratioP1;P1;durP2;ratioP2;P2;SDS_P1;SDS_P2;PMS_P1;PMS_P2;Temp;Humidity;BMP_temperature;BMP_pressure;BME280_temperature;BME280_humidity;BME280_pressure;Samples;Min_cycle;Max_cycle;Signal;HPM_P1;HPM_P2
2021/05/31 00:01:02;;;;;;;5.4;4.2;;;16;99.9;;;;;;;;;
2021/05/31 00:02:02;;;;;;;4.8;3.8;;;16;99.9;;;;;;;;;
2021/05/31 00:03:02;;;;;;;5.72;4.38;;;16;99.9;;;;;;;;;
2021/05/31 00:03:16;;;;;;;4.65;4;;;16;99.9;;;;;;;;;
2021/05/31 00:04:02;;;;;;;4.65;4;;;16;99.9;;;;;;;;;
2021/05/31 00:04:12;;;;;;;4.43;3.85;;;16;99.9;;;;;;;;;
2021/05/31 00:05:02;;;;;;;4.43;3.85;;;16;99.9;;;;;;;;;
2021/05/31 00:05:14;;;;;;;5.85;3.97;;;16;99.9;;;;;;;;;
2021/05/31 00:05:31;;;;;;;5.85;3.97;;;16;99.9;;;;;;;;;
2021/05/31 00:06:02;;;;;;;5.85;3.97;;;16;99.9;;;;;;;;;
2021/05/31 00:06:15;;;;;;;6.07;3.95;;;16;99.9;;;;;;;;;
2021/05/31 00:06:25;;;;;;;6.07;3.95;;;16;99.9;;;;;;;;;
2021/05/31 00:07:02;;;;;;;6.07;3.95;;;16;99.9;;;;;;;;;
2021/05/31 00:07:17;;;;;;;4.72;3.6;;;16;99.9;;;;;;;;;
2021/05/31 00:07:27;;;;;;;4.72;3.6;;;16;99.9;;;;;;;;;
2021/05/31 00:07:42;;;;;;;4.72;3.6;;;16;99.9;;;;;;;;;
2021/05/31 00:08:02;;;;;;;4.72;3.6;;;16;99.9;;;;;;;;;
2021/05/31 00:08:13;;;;;;;5.65;3.95;;;16;99.9;;;;;;;;;
2021/05/31 00:08:28;;;;;;;5.65;3.95;;;16;99.9;;;;;;;;;
2021/05/31 00:08:38;;;;;;;5.65;3.95;;;16;99.9;;;;;;;;;
2021/05/31 00:09:02;;;;;;;5.65;3.95;;;16;99.9;;;;;;;;;
2021/05/31 00:09:14;;;;;;;5.03;4.15;;;16;99.9;;;;;;;;;
2021/05/31 00:09:30;;;;;;;5.03;4.15;;;16;99.9;;;;;;;;;
2021/05/31 00:09:40;;;;;;;5.03;4.15;;;16;99.9;;;;;;;;;
2021/05/31 00:09:56;;;;;;;5.03;4.15;;;16;99.9;;;;;;;;;
2021/05/31 00:10:02;;;;;;;5.03;4.15;;;16;99.9;;;;;;;;;
2021/05/31 00:10:16;;;;;;;5;4.5;;;16;99.9;;;;;;;;;
2021/05/31 00:10:26;;;;;;;5;4.5;;;16;99.9;;;;;;;;;
2021/05/31 00:10:41;;;;;;;5;4.5;;;16;99.9;;;;;;;;;
2021/05/31 00:10:52;;;;;;;5;4.5;;;16;99.9;;;;;;;;;
2021/05/31 00:11:02;;;;;;;5;4.5;;;16;99.9;;;;;;;;;
2021/05/31 00:11:17;;;;;;;8.85;4.53;;;16;99.9;;;;;;;;;
2021/05/31 00:11:27;;;;;;;8.85;4.53;;;16;99.9;;;;;;;;;
2021/05/31 00:11:43;;;;;;;8.85;4.53;;;16;99.9;;;;;;;;;
2021/05/31 00:11:53;;;;;;;8.85;4.53;;;16;99.9;;;;;;;;;
2021/05/31 00:12:02;;;;;;;8.85;4.53;;;16;99.9;;;;;;;;;
2021/05/31 00:12:08;;;;;;;8.85;4.53;;;16;99.9;;;;;;;;;
2021/05/31 00:12:14;;;;;;;8.85;4.53;;;16;99.9;;;;;;;;;
2021/05/31 00:12:29;;;;;;;6.63;4.18;;;16;99.9;;;;;;;;;
2021/05/31 00:12:39;;;;;;;6.63;4.18;;;16;99.9;;;;;;;;;
2021/05/31 00:12:55;;;;;;;6.63;4.18;;;16;99.9;;;;;;;;;
2021/05/31 00:13:02;;;;;;;6.63;4.18;;;16;99.9;;;;;;;;;
2021/05/31 00:13:05;;;;;;;6.63;4.18;;;16;99.9;;;;;;;;;
2021/05/31 00:13:15;;;;;;;4.8;4.05;;;15.9;99.9;;;;;;;;;
2021/05/31 00:13:30;;;;;;;4.8;4.05;;;15.9;99.9;;;;;;;;;
2021/05/31 00:13:41;;;;;;;4.8;4.05;;;15.9;99.9;;;;;;;;;
2021/05/31 00:13:56;;;;;;;4.8;4.05;;;15.9;99.9;;;;;;;;;
2021/05/31 00:14:02;;;;;;;4.8;4.05;;;15.9;99.9;;;;;;;;;
2021/05/31 00:14:06;;;;;;;4.8;4.05;;;15.9;99.9;;;;;;;;;
2021/05/31 00:14:16;;;;;;;5.1;4.07;;;15.9;99.9;;;;;;;;;
2021/05/31 00:14:27;;;;;;;5.1;4.07;;;15.9;99.9;;;;;;;;;
2021/05/31 00:14:42;;;;;;;5.1;4.07;;;15.9;99.9;;;;;;;;;
2021/05/31 00:14:52;;;;;;;5.1;4.07;;;15.9;99.9;;;;;;;;;
2021/05/31 00:15:02;;;;;;;5.1;4.07;;;15.9;99.9;;;;;;;;;
2021/05/31 00:15:08;;;;;;;5.1;4.07;;;15.9;99.9;;;;;;;;;
2021/05/31 00:15:13;;;;;;;5.1;4.07;;;15.9;99.9;;;;;;;;;
2021/05/31 00:15:28;;;;;;;5.03;3.58;;;15.9;99.9;;;;;;;;;
2021/05/31 00:15:43;;;;;;;5.03;3.58;;;15.9;99.9;;;;;;;;;
2021/05/31 00:15:55;;;;;;;5.03;3.58;;;15.9;99.9;;;;;;;;;
2021/05/31 00:16:01;;;;;;;5.03;3.58;;;15.9;99.9;;;;;;;;;
2021/05/31 00:16:09;;;;;;;5.03;3.58;;;15.9;99.9;;;;;;;;;
2021/05/31 00:16:14;;;;;;;5.03;3.58;;;15.9;99.9;;;;;;;;;
2021/05/31 00:16:30;;;;;;;3.47;3.17;;;15.9;99.9;;;;;;;;;
2021/05/31 00:16:42;;;;;;;3.47;3.17;;;15.9;99.9;;;;;;;;;
2021/05/31 00:16:55;;;;;;;3.47;3.17;;;15.9;99.9;;;;;;;;;
2021/05/31 00:17:02;;;;;;;3.47;3.17;;;15.9;99.9;;;;;;;;;
2021/05/31 00:17:05;;;;;;;3.47;3.17;;;15.9;99.9;;;;;;;;;
2021/05/31 00:17:16;;;;;;;6.43;3.35;;;15.9;99.9;;;;;;;;;
2021/05/31 00:17:26;;;;;;;6.43;3.35;;;15.9;99.9;;;;;;;;;
2021/05/31 00:17:41;;;;;;;6.43;3.35;;;15.9;99.9;;;;;;;;;
2021/05/31 00:17:57;;;;;;;6.43;3.35;;;15.9;99.9;;;;;;;;;
2021/05/31 00:18:01;;;;;;;6.43;3.35;;;15.9;99.9;;;;;;;;;
2021/05/31 00:18:07;;;;;;;6.43;3.35;;;15.9;99.9;;;;;;;;;
2021/05/31 00:18:12;;;;;;;6.43;3.35;;;15.9;99.9;;;;;;;;;
2021/05/31 00:18:27;;;;;;;4.43;3.5;;;15.8;99.9;;;;;;;;;
2021/05/31 00:18:43;;;;;;;4.43;3.5;;;15.8;99.9;;;;;;;;;
2021/05/31 00:18:53;;;;;;;4.43;3.5;;;15.8;99.9;;;;;;;;;
2021/05/31 00:19:03;;;;;;;4.43;3.5;;;15.8;99.9;;;;;;;;;
2021/05/31 00:19:09;;;;;;;4.43;3.5;;;15.8;99.9;;;;;;;;;
2021/05/31 00:19:14;;;;;;;4.43;3.5;;;15.8;99.9;;;;;;;;;
2021/05/31 00:19:29;;;;;;;4.22;3.83;;;15.8;99.9;;;;;;;;;
2021/05/31 00:19:39;;;;;;;4.22;3.83;;;15.8;99.9;;;;;;;;;
2021/05/31 00:19:54;;;;;;;4.22;3.83;;;15.8;99.9;;;;;;;;;
2021/05/31 00:20:02;;;;;;;4.22;3.83;;;15.8;99.9;;;;;;;;;
2021/05/31 00:20:10;;;;;;;4.22;3.83;;;15.8;99.9;;;;;;;;;
2021/05/31 00:20:15;;;;;;;4.22;3.83;;;15.8;99.9;;;;;;;;;
2021/05/31 00:20:25;;;;;;;4.78;3.85;;;15.8;99.9;;;;;;;;;
2021/05/31 00:20:40;;;;;;;4.78;3.85;;;15.8;99.9;;;;;;;;;
2021/05/31 00:20:56;;;;;;;4.78;3.85;;;15.8;99.9;;;;;;;;;
2021/05/31 00:21:01;;;;;;;4.78;3.85;;;15.8;99.9;;;;;;;;;
2021/05/31 00:21:06;;;;;;;4.78;3.85;;;15.8;99.9;;;;;;;;;
2021/05/31 00:21:16;;;;;;;4.78;3.85;;;15.8;99.9;;;;;;;;;
2021/05/31 00:21:27;;;;;;;6.43;4.1;;;15.8;99.9;;;;;;;;;
2021/05/31 00:21:42;;;;;;;6.43;4.1;;;15.8;99.9;;;;;;;;;
2021/05/31 00:21:52;;;;;;;6.43;4.1;;;15.8;99.9;;;;;;;;;
2021/05/31 00:22:02;;;;;;;6.43;4.1;;;15.8;99.9;;;;;;;;;
2021/05/31 00:22:07;;;;;;;6.43;4.1;;;15.8;99.9;;;;;;;;;
2021/05/31 00:22:19;;;;;;;4.38;3.17;;;15.8;99.9;;;;;;;;;
2021/05/31 00:22:28;;;;;;;4.38;3.17;;;15.8;99.9;;;;;;;;;
2021/05/31 00:22:38;;;;;;;4.38;3.17;;;15.8;99.9;;;;;;;;;
2021/05/31 00:22:54;;;;;;;4.38;3.17;;;15.8;99.9;;;;;;;;;
2021/05/31 00:23:01;;;;;;;4.38;3.17;;;15.8;99.9;;;;;;;;;
2021/05/31 00:23:09;;;;;;;4.38;3.17;;;15.8;99.9;;;;;;;;;
2021/05/31 00:23:14;;;;;;;4.38;3.17;;;15.8;99.9;;;;;;;;;
2021/05/31 00:23:29;;;;;;;5.07;4.05;;;15.8;99.9;;;;;;;;;
2021/05/31 00:23:40;;;;;;;5.07;4.05;;;15.8;99.9;;;;;;;;;
2021/05/31 00:23:55;;;;;;;5.07;4.05;;;15.8;99.9;;;;;;;;;
2021/05/31 00:24:02;;;;;;;5.07;4.05;;;15.8;99.9;;;;;;;;;
2021/05/31 00:24:05;;;;;;;5.07;4.05;;;15.8;99.9;;;;;;;;;
2021/05/31 00:24:16;;;;;;;5.07;4.05;;;15.8;99.9;;;;;;;;;
2021/05/31 00:24:31;;;;;;;4.68;4;;;15.8;99.9;;;;;;;;;
2021/05/31 00:24:41;;;;;;;4.68;4;;;15.8;99.9;;;;;;;;;
2021/05/31 00:24:51;;;;;;;4.68;4;;;15.8;99.9;;;;;;;;;
2021/05/31 00:25:02;;;;;;;4.68;4;;;15.8;99.9;;;;;;;;;
2021/05/31 00:25:08;;;;;;;4.68;4;;;15.8;99.9;;;;;;;;;
2021/05/31 00:25:12;;;;;;;4.68;4;;;15.8;99.9;;;;;;;;;
2021/05/31 00:25:27;;;;;;;6;3.88;;;15.8;99.9;;;;;;;;;
2021/05/31 00:25:43;;;;;;;6;3.88;;;15.8;99.9;;;;;;;;;
2021/05/31 00:25:53;;;;;;;6;3.88;;;15.8;99.9;;;;;;;;;
2021/05/31 00:26:02;;;;;;;6;3.88;;;15.8;99.9;;;;;;;;;
2021/05/31 00:26:08;;;;;;;6;3.88;;;15.8;99.9;;;;;;;;;
2021/05/31 00:26:13;;;;;;;6;3.88;;;15.8;99.9;;;;;;;;;
2021/05/31 00:26:29;;;;;;;4.4;3.65;;;15.9;99.9;;;;;;;;;
2021/05/31 00:26:44;;;;;;;4.4;3.65;;;15.9;99.9;;;;;;;;;
2021/05/31 00:26:54;;;;;;;4.4;3.65;;;15.9;99.9;;;;;;;;;
2021/05/31 00:27:02;;;;;;;4.4;3.65;;;15.9;99.9;;;;;;;;;
2021/05/31 00:27:04;;;;;;;4.4;3.65;;;15.9;99.9;;;;;;;;;
2021/05/31 00:27:15;;;;;;;4.4;3.65;;;15.9;99.9;;;;;;;;;
2021/05/31 00:27:25;;;;;;;5.57;4.03;;;15.9;99.9;;;;;;;;;
2021/05/31 00:27:40;;;;;;;5.57;4.03;;;15.9;99.9;;;;;;;;;
2021/05/31 00:27:56;;;;;;;5.57;4.03;;;15.9;99.9;;;;;;;;;
2021/05/31 00:28:01;;;;;;;5.57;4.03;;;15.9;99.9;;;;;;;;;
2021/05/31 00:28:06;;;;;;;5.57;4.03;;;15.9;99.9;;;;;;;;;
2021/05/31 00:28:16;;;;;;;5.57;4.03;;;15.9;99.9;;;;;;;;;
2021/05/31 00:28:26;;;;;;;4.57;3.33;;;15.9;99.9;;;;;;;;;
2021/05/31 00:28:42;;;;;;;4.57;3.33;;;15.9;99.9;;;;;;;;;
2021/05/31 00:28:57;;;;;;;4.57;3.33;;;15.9;99.9;;;;;;;;;
2021/05/31 00:29:02;;;;;;;4.57;3.33;;;15.9;99.9;;;;;;;;;
2021/05/31 00:29:07;;;;;;;4.57;3.33;;;15.9;99.9;;;;;;;;;
2021/05/31 00:29:13;;;;;;;4.57;3.33;;;15.9;99.9;;;;;;;;;
2021/05/31 00:29:28;;;;;;;4.35;3.95;;;15.9;99.9;;;;;;;;;
2021/05/31 00:29:38;;;;;;;4.35;3.95;;;15.9;99.9;;;;;;;;;
2021/05/31 00:29:53;;;;;;;4.35;3.95;;;15.9;99.9;;;;;;;;;
2021/05/31 00:30:02;;;;;;;4.35;3.95;;;15.9;99.9;;;;;;;;;
2021/05/31 00:30:09;;;;;;;4.35;3.95;;;15.9;99.9;;;;;;;;;
2021/05/31 00:30:14;;;;;;;4.35;3.95;;;15.9;99.9;;;;;;;;;
2021/05/31 00:30:29;;;;;;;4.03;3.42;;;15.8;99.9;;;;;;;;;
2021/05/31 00:30:40;;;;;;;4.03;3.42;;;15.8;99.9;;;;;;;;;
2021/05/31 00:30:55;;;;;;;4.03;3.42;;;15.8;99.9;;;;;;;;;
2021/05/31 00:31:02;;;;;;;4.03;3.42;;;15.8;99.9;;;;;;;;;
2021/05/31 00:31:10;;;;;;;4.03;3.42;;;15.8;99.9;;;;;;;;;
2021/05/31 00:31:15;;;;;;;4.03;3.42;;;15.8;99.9;;;;;;;;;
2021/05/31 00:31:26;;;;;;;4.78;3.4;;;15.8;99.9;;;;;;;;;
2021/05/31 00:31:41;;;;;;;4.78;3.4;;;15.8;99.9;;;;;;;;;
2021/05/31 00:31:51;;;;;;;4.78;3.4;;;15.8;99.9;;;;;;;;;
2021/05/31 00:32:02;;;;;;;4.78;3.4;;;15.8;99.9;;;;;;;;;
2021/05/31 00:32:06;;;;;;;4.78;3.4;;;15.8;99.9;;;;;;;;;
2021/05/31 00:32:17;;;;;;;4.78;3.4;;;15.8;99.9;;;;;;;;;
2021/05/31 00:32:27;;;;;;;5.38;3.8;;;15.8;99.9;;;;;;;;;
2021/05/31 00:32:42;;;;;;;5.38;3.8;;;15.8;99.9;;;;;;;;;
2021/05/31 00:32:53;;;;;;;5.38;3.8;;;15.8;99.9;;;;;;;;;
2021/05/31 00:33:01;;;;;;;5.38;3.8;;;15.8;99.9;;;;;;;;;
2021/05/31 00:33:08;;;;;;;5.38;3.8;;;15.8;99.9;;;;;;;;;
2021/05/31 00:33:13;;;;;;;5.38;3.8;;;15.8;99.9;;;;;;;;;
2021/05/31 00:33:28;;;;;;;5.57;3.83;;;15.8;99.9;;;;;;;;;
2021/05/31 00:33:39;;;;;;;5.57;3.83;;;15.8;99.9;;;;;;;;;
2021/05/31 00:33:54;;;;;;;5.57;3.83;;;15.8;99.9;;;;;;;;;
2021/05/31 00:34:02;;;;;;;5.57;3.83;;;15.8;99.9;;;;;;;;;
2021/05/31 00:34:04;;;;;;;5.57;3.83;;;15.8;99.9;;;;;;;;;
2021/05/31 00:34:15;;;;;;;5.57;3.83;;;15.8;99.9;;;;;;;;;
2021/05/31 00:34:30;;;;;;;3.97;3.65;;;15.8;99.9;;;;;;;;;
2021/05/31 00:34:41;;;;;;;3.97;3.65;;;15.8;99.9;;;;;;;;;
2021/05/31 00:34:56;;;;;;;3.97;3.65;;;15.8;99.9;;;;;;;;;
2021/05/31 00:35:02;;;;;;;3.97;3.65;;;15.8;99.9;;;;;;;;;
2021/05/31 00:35:06;;;;;;;3.97;3.65;;;15.8;99.9;;;;;;;;;
2021/05/31 00:35:16;;;;;;;3.97;3.65;;;15.8;99.9;;;;;;;;;
2021/05/31 00:35:26;;;;;;;6.15;4.15;;;15.7;99.9;;;;;;;;;
2021/05/31 00:35:42;;;;;;;6.15;4.15;;;15.7;99.9;;;;;;;;;
2021/05/31 00:35:52;;;;;;;6.15;4.15;;;15.7;99.9;;;;;;;;;
2021/05/31 00:36:02;;;;;;;6.15;4.15;;;15.7;99.9;;;;;;;;;
2021/05/31 00:36:07;;;;;;;6.15;4.15;;;15.7;99.9;;;;;;;;;
2021/05/31 00:36:12;;;;;;;6.15;4.15;;;15.7;99.9;;;;;;;;;
2021/05/31 00:36:28;;;;;;;4.13;3.72;;;15.7;99.9;;;;;;;;;
2021/05/31 00:36:43;;;;;;;4.13;3.72;;;15.7;99.9;;;;;;;;;
2021/05/31 00:36:53;;;;;;;4.13;3.72;;;15.7;99.9;;;;;;;;;
2021/05/31 00:37:02;;;;;;;4.13;3.72;;;15.7;99.9;;;;;;;;;
2021/05/31 00:37:09;;;;;;;4.13;3.72;;;15.7;99.9;;;;;;;;;
2021/05/31 00:37:14;;;;;;;4.13;3.72;;;15.7;99.9;;;;;;;;;
2021/05/31 00:37:29;;;;;;;4.68;3.8;;;15.7;99.9;;;;;;;;;
2021/05/31 00:37:39;;;;;;;4.68;3.8;;;15.7;99.9;;;;;;;;;
2021/05/31 00:37:55;;;;;;;4.68;3.8;;;15.7;99.9;;;;;;;;;
2021/05/31 00:38:01;;;;;;;4.68;3.8;;;15.7;99.9;;;;;;;;;
2021/05/31 00:38:05;;;;;;;4.68;3.8;;;15.7;99.9;;;;;;;;;
2021/05/31 00:38:15;;;;;;;4.68;3.8;;;15.7;99.9;;;;;;;;;
2021/05/31 00:38:25;;;;;;;4.4;3.75;;;15.7;99.9;;;;;;;;;
2021/05/31 00:38:41;;;;;;;4.4;3.75;;;15.7;99.9;;;;;;;;;
2021/05/31 00:38:56;;;;;;;4.4;3.75;;;15.7;99.9;;;;;;;;;
2021/05/31 00:39:02;;;;;;;4.4;3.75;;;15.7;99.9;;;;;;;;;
2021/05/31 00:39:06;;;;;;;4.4;3.75;;;15.7;99.9;;;;;;;;;
2021/05/31 00:39:17;;;;;;;4.4;3.75;;;15.7;99.9;;;;;;;;;
2021/05/31 00:39:27;;;;;;;4.95;3.88;;;15.7;99.9;;;;;;;;;
2021/05/31 00:39:42;;;;;;;4.95;3.88;;;15.7;99.9;;;;;;;;;
2021/05/31 00:39:52;;;;;;;4.95;3.88;;;15.7;99.9;;;;;;;;;
2021/05/31 00:40:01;;;;;;;4.95;3.88;;;15.7;99.9;;;;;;;;;
2021/05/31 00:40:08;;;;;;;4.95;3.88;;;15.7;99.9;;;;;;;;;
2021/05/31 00:40:13;;;;;;;4.95;3.88;;;15.7;99.9;;;;;;;;;
2021/05/31 00:40:28;;;;;;;6.6;4.53;;;15.7;99.9;;;;;;;;;
2021/05/31 00:40:39;;;;;;;6.6;4.53;;;15.7;99.9;;;;;;;;;
2021/05/31 00:40:54;;;;;;;6.6;4.53;;;15.7;99.9;;;;;;;;;
2021/05/31 00:41:03;;;;;;;6.6;4.53;;;15.7;99.9;;;;;;;;;
2021/05/31 00:41:09;;;;;;;6.6;4.53;;;15.7;99.9;;;;;;;;;
2021/05/31 00:41:14;;;;;;;6.6;4.53;;;15.7;99.9;;;;;;;;;
2021/05/31 00:41:30;;;;;;;4.6;4.2;;;15.7;99.9;;;;;;;;;
2021/05/31 00:41:44;;;;;;;4.6;4.2;;;15.7;99.9;;;;;;;;;
2021/05/31 00:41:55;;;;;;;4.6;4.2;;;15.7;99.9;;;;;;;;;
2021/05/31 00:42:02;;;;;;;4.6;4.2;;;15.7;99.9;;;;;;;;;
2021/05/31 00:42:06;;;;;;;4.6;4.2;;;15.7;99.9;;;;;;;;;
2021/05/31 00:42:16;;;;;;;4.6;4.2;;;15.7;99.9;;;;;;;;;
2021/05/31 00:42:26;;;;;;;5.57;4.03;;;15.7;99.9;;;;;;;;;
2021/05/31 00:42:41;;;;;;;5.57;4.03;;;15.7;99.9;;;;;;;;;
2021/05/31 00:42:52;;;;;;;5.57;4.03;;;15.7;99.9;;;;;;;;;
2021/05/31 00:43:01;;;;;;;5.57;4.03;;;15.7;99.9;;;;;;;;;
2021/05/31 00:43:07;;;;;;;5.57;4.03;;;15.7;99.9;;;;;;;;;
2021/05/31 00:43:17;;;;;;;5.57;4.03;;;15.7;99.9;;;;;;;;;
2021/05/31 00:43:33;;;;;;;5.6;4.25;;;15.7;99.9;;;;;;;;;
2021/05/31 00:43:43;;;;;;;5.6;4.25;;;15.7;99.9;;;;;;;;;
2021/05/31 00:43:58;;;;;;;5.6;4.25;;;15.7;99.9;;;;;;;;;
2021/05/31 00:44:02;;;;;;;5.6;4.25;;;15.7;99.9;;;;;;;;;
2021/05/31 00:44:08;;;;;;;5.6;4.25;;;15.7;99.9;;;;;;;;;
2021/05/31 00:44:14;;;;;;;5.6;4.25;;;15.7;99.9;;;;;;;;;
2021/05/31 00:44:29;;;;;;;4.65;4.1;;;15.7;99.9;;;;;;;;;
2021/05/31 00:44:39;;;;;;;4.65;4.1;;;15.7;99.9;;;;;;;;;
2021/05/31 00:44:54;;;;;;;4.65;4.1;;;15.7;99.9;;;;;;;;;
2021/05/31 00:45:01;;;;;;;4.65;4.1;;;15.7;99.9;;;;;;;;;
2021/05/31 00:45:05;;;;;;;4.65;4.1;;;15.7;99.9;;;;;;;;;
2021/05/31 00:45:15;;;;;;;4.65;4.1;;;15.7;99.9;;;;;;;;;
2021/05/31 00:45:30;;;;;;;4.6;4.15;;;15.7;99.9;;;;;;;;;
2021/05/31 00:45:46;;;;;;;4.6;4.15;;;15.7;99.9;;;;;;;;;
2021/05/31 00:45:56;;;;;;;4.6;4.15;;;15.7;99.9;;;;;;;;;
2021/05/31 00:46:02;;;;;;;4.6;4.15;;;15.7;99.9;;;;;;;;;
2021/05/31 00:46:11;;;;;;;4.6;4.15;;;15.7;99.9;;;;;;;;;
2021/05/31 00:46:16;;;;;;;4.6;4.15;;;15.7;99.9;;;;;;;;;
2021/05/31 00:46:27;;;;;;;5.43;4.2;;;15.6;99.9;;;;;;;;;
2021/05/31 00:46:42;;;;;;;5.43;4.2;;;15.6;99.9;;;;;;;;;
2021/05/31 00:46:52;;;;;;;5.43;4.2;;;15.6;99.9;;;;;;;;;
2021/05/31 00:47:04;;;;;;;5.43;4.2;;;15.6;99.9;;;;;;;;;
2021/05/31 00:47:08;;;;;;;5.43;4.2;;;15.6;99.9;;;;;;;;;
2021/05/31 00:47:13;;;;;;;5.43;4.2;;;15.6;99.9;;;;;;;;;
2021/05/31 00:47:28;;;;;;;5.47;4.4;;;15.6;99.9;;;;;;;;;
2021/05/31 00:47:43;;;;;;;5.47;4.4;;;15.6;99.9;;;;;;;;;
2021/05/31 00:47:59;;;;;;;5.47;4.4;;;15.6;99.9;;;;;;;;;
2021/05/31 00:48:01;;;;;;;5.47;4.4;;;15.6;99.9;;;;;;;;;
2021/05/31 00:48:09;;;;;;;5.47;4.4;;;15.6;99.9;;;;;;;;;
2021/05/31 00:48:14;;;;;;;5.47;4.4;;;15.6;99.9;;;;;;;;;
2021/05/31 00:48:30;;;;;;;6.05;4.38;;;15.7;99.9;;;;;;;;;
2021/05/31 00:48:40;;;;;;;6.05;4.38;;;15.7;99.9;;;;;;;;;
2021/05/31 00:48:55;;;;;;;6.05;4.38;;;15.7;99.9;;;;;;;;;
2021/05/31 00:49:02;;;;;;;6.05;4.38;;;15.7;99.9;;;;;;;;;
2021/05/31 00:49:05;;;;;;;6.05;4.38;;;15.7;99.9;;;;;;;;;
2021/05/31 00:49:16;;;;;;;6.05;4.38;;;15.7;99.9;;;;;;;;;
2021/05/31 00:49:27;;;;;;;5.15;3.8;;;15.7;99.9;;;;;;;;;
2021/05/31 00:49:41;;;;;;;5.15;3.8;;;15.7;99.9;;;;;;;;;
2021/05/31 00:49:57;;;;;;;5.15;3.8;;;15.7;99.9;;;;;;;;;
2021/05/31 00:50:01;;;;;;;5.15;3.8;;;15.7;99.9;;;;;;;;;
2021/05/31 00:50:12;;;;;;;5.15;3.8;;;15.7;99.9;;;;;;;;;
2021/05/31 00:50:12;;;;;;;5.15;3.8;;;15.7;99.9;;;;;;;;;
2021/05/31 00:50:27;;;;;;;5.72;4.8;;;15.7;99.9;;;;;;;;;
2021/05/31 00:50:43;;;;;;;5.72;4.8;;;15.7;99.9;;;;;;;;;
2021/05/31 00:50:53;;;;;;;5.72;4.8;;;15.7;99.9;;;;;;;;;
2021/05/31 00:51:03;;;;;;;5.72;4.8;;;15.7;99.9;;;;;;;;;
2021/05/31 00:51:08;;;;;;;5.72;4.8;;;15.7;99.9;;;;;;;;;
2021/05/31 00:51:13;;;;;;;5.72;4.8;;;15.7;99.9;;;;;;;;;
2021/05/31 00:51:29;;;;;;;5.6;4.32;;;15.6;99.9;;;;;;;;;
2021/05/31 00:51:39;;;;;;;5.6;4.32;;;15.6;99.9;;;;;;;;;
2021/05/31 00:51:54;;;;;;;5.6;4.32;;;15.6;99.9;;;;;;;;;
2021/05/31 00:52:03;;;;;;;5.6;4.32;;;15.6;99.9;;;;;;;;;
2021/05/31 00:52:10;;;;;;;5.6;4.32;;;15.6;99.9;;;;;;;;;
2021/05/31 00:52:15;;;;;;;5.6;4.32;;;15.6;99.9;;;;;;;;;
2021/05/31 00:52:25;;;;;;;5.6;4.32;;;15.6;99.9;;;;;;;;;
2021/05/31 00:52:40;;;;;;;7.32;4.57;;;15.6;99.9;;;;;;;;;
2021/05/31 00:52:56;;;;;;;7.32;4.57;;;15.6;99.9;;;;;;;;;
2021/05/31 00:53:02;;;;;;;7.32;4.57;;;15.6;99.9;;;;;;;;;
2021/05/31 00:53:06;;;;;;;7.32;4.57;;;15.6;99.9;;;;;;;;;
2021/05/31 00:53:16;;;;;;;7.32;4.57;;;15.6;99.9;;;;;;;;;
2021/05/31 00:53:27;;;;;;;5.25;4.4;;;15.5;99.9;;;;;;;;;
2021/05/31 00:53:42;;;;;;;5.25;4.4;;;15.5;99.9;;;;;;;;;
2021/05/31 00:53:52;;;;;;;5.25;4.4;;;15.5;99.9;;;;;;;;;
2021/05/31 00:54:02;;;;;;;5.25;4.4;;;15.5;99.9;;;;;;;;;
2021/05/31 00:54:07;;;;;;;5.25;4.4;;;15.5;99.9;;;;;;;;;
2021/05/31 00:54:18;;;;;;;5.25;4.4;;;15.5;99.9;;;;;;;;;
2021/05/31 00:54:28;;;;;;;4.53;4.13;;;15.5;99.9;;;;;;;;;
2021/05/31 00:54:38;;;;;;;4.53;4.13;;;15.5;99.9;;;;;;;;;
2021/05/31 00:54:54;;;;;;;4.53;4.13;;;15.5;99.9;;;;;;;;;
2021/05/31 00:55:01;;;;;;;4.53;4.13;;;15.5;99.9;;;;;;;;;
2021/05/31 00:55:09;;;;;;;4.53;4.13;;;15.5;99.9;;;;;;;;;
2021/05/31 00:55:14;;;;;;;4.53;4.13;;;15.5;99.9;;;;;;;;;
2021/05/31 00:55:29;;;;;;;6.6;5.25;;;15.5;99.9;;;;;;;;;
2021/05/31 00:55:40;;;;;;;6.6;5.25;;;15.5;99.9;;;;;;;;;
2021/05/31 00:55:55;;;;;;;6.6;5.25;;;15.5;99.9;;;;;;;;;
2021/05/31 00:56:02;;;;;;;6.6;5.25;;;15.5;99.9;;;;;;;;;
2021/05/31 00:56:05;;;;;;;6.6;5.25;;;15.5;99.9;;;;;;;;;
2021/05/31 00:56:15;;;;;;;6.6;5.25;;;15.5;99.9;;;;;;;;;
2021/05/31 00:56:31;;;;;;;5.4;4.55;;;15.4;99.9;;;;;;;;;
2021/05/31 00:56:42;;;;;;;5.4;4.55;;;15.4;99.9;;;;;;;;;
2021/05/31 00:56:51;;;;;;;5.4;4.55;;;15.4;99.9;;;;;;;;;
2021/05/31 00:57:02;;;;;;;5.4;4.55;;;15.4;99.9;;;;;;;;;
2021/05/31 00:57:07;;;;;;;5.4;4.55;;;15.4;99.9;;;;;;;;;
2021/05/31 00:57:17;;;;;;;5.4;4.55;;;15.4;99.9;;;;;;;;;
2021/05/31 00:57:27;;;;;;;5.4;4.55;;;15.4;99.9;;;;;;;;;
2021/05/31 00:57:43;;;;;;;5.28;4.78;;;15.3;99.9;;;;;;;;;
2021/05/31 00:57:53;;;;;;;5.28;4.78;;;15.3;99.9;;;;;;;;;
2021/05/31 00:58:02;;;;;;;5.28;4.78;;;15.3;99.9;;;;;;;;;
2021/05/31 00:58:08;;;;;;;5.28;4.78;;;15.3;99.9;;;;;;;;;
2021/05/31 00:58:13;;;;;;;5.28;4.78;;;15.3;99.9;;;;;;;;;
2021/05/31 00:58:29;;;;;;;5.38;4.82;;;15.3;99.9;;;;;;;;;
2021/05/31 00:58:44;;;;;;;5.38;4.82;;;15.3;99.9;;;;;;;;;
2021/05/31 00:58:54;;;;;;;5.38;4.82;;;15.3;99.9;;;;;;;;;
2021/05/31 00:59:02;;;;;;;5.38;4.82;;;15.3;99.9;;;;;;;;;
2021/05/31 00:59:04;;;;;;;5.38;4.82;;;15.3;99.9;;;;;;;;;
2021/05/31 00:59:15;;;;;;;5.38;4.82;;;15.3;99.9;;;;;;;;;
2021/05/31 00:59:30;;;;;;;7.72;4.8;;;15.3;99.9;;;;;;;;;
2021/05/31 00:59:40;;;;;;;7.72;4.8;;;15.3;99.9;;;;;;;;;
2021/05/31 00:59:56;;;;;;;7.72;4.8;;;15.3;99.9;;;;;;;;;
2021/05/31 01:00:01;;;;;;;7.72;4.8;;;15.3;99.9;;;;;;;;;
2021/05/31 01:00:06;;;;;;;7.72;4.8;;;15.3;99.9;;;;;;;;;
2021/05/31 01:00:16;;;;;;;7.72;4.8;;;15.3;99.9;;;;;;;;;
2021/05/31 01:00:26;;;;;;;7.72;4.8;;;15.3;99.9;;;;;;;;;
2021/05/31 01:00:42;;;;;;;8.02;5.43;;;15.3;99.9;;;;;;;;;
2021/05/31 01:00:57;;;;;;;8.02;5.43;;;15.3;99.9;;;;;;;;;
2021/05/31 01:01:02;;;;;;;8.02;5.43;;;15.3;99.9;;;;;;;;;
2021/05/31 01:01:07;;;;;;;8.02;5.43;;;15.3;99.9;;;;;;;;;
2021/05/31 01:01:14;;;;;;;8.02;5.43;;;15.3;99.9;;;;;;;;;
2021/05/31 01:01:28;;;;;;;8.02;5.43;;;15.3;99.9;;;;;;;;;
2021/05/31 01:01:43;;;;;;;6.22;5.07;;;15.3;99.9;;;;;;;;;
2021/05/31 01:01:54;;;;;;;6.22;5.07;;;15.3;99.9;;;;;;;;;
2021/05/31 01:02:02;;;;;;;6.22;5.07;;;15.3;99.9;;;;;;;;;
2021/05/31 01:02:09;;;;;;;6.22;5.07;;;15.3;99.9;;;;;;;;;
2021/05/31 01:02:14;;;;;;;6.22;5.07;;;15.3;99.9;;;;;;;;;
2021/05/31 01:02:29;;;;;;;6.85;6.15;;;15.3;99.9;;;;;;;;;
2021/05/31 01:02:39;;;;;;;6.85;6.15;;;15.3;99.9;;;;;;;;;
2021/05/31 01:02:56;;;;;;;6.85;6.15;;;15.3;99.9;;;;;;;;;
2021/05/31 01:03:02;;;;;;;6.85;6.15;;;15.3;99.9;;;;;;;;;
2021/05/31 01:03:10;;;;;;;6.85;6.15;;;15.3;99.9;;;;;;;;;
2021/05/31 01:03:15;;;;;;;6.85;6.15;;;15.3;99.9;;;;;;;;;
2021/05/31 01:03:26;;;;;;;6.85;6.15;;;15.3;99.9;;;;;;;;;
2021/05/31 01:03:41;;;;;;;5.32;4.65;;;15.3;99.9;;;;;;;;;
2021/05/31 01:03:56;;;;;;;5.32;4.65;;;15.3;99.9;;;;;;;;;
2021/05/31 01:04:02;;;;;;;5.32;4.65;;;15.3;99.9;;;;;;;;;
2021/05/31 01:04:07;;;;;;;5.32;4.65;;;15.3;99.9;;;;;;;;;
2021/05/31 01:04:18;;;;;;;5.32;4.65;;;15.3;99.9;;;;;;;;;
2021/05/31 01:04:27;;;;;;;5.32;4.65;;;15.3;99.9;;;;;;;;;
2021/05/31 01:04:42;;;;;;;6.28;5.55;;;15.3;99.9;;;;;;;;;
2021/05/31 01:04:53;;;;;;;6.28;5.55;;;15.3;99.9;;;;;;;;;
2021/05/31 01:05:01;;;;;;;6.28;5.55;;;15.3;99.9;;;;;;;;;
2021/05/31 01:05:08;;;;;;;6.28;5.55;;;15.3;99.9;;;;;;;;;
2021/05/31 01:05:13;;;;;;;6.28;5.55;;;15.3;99.9;;;;;;;;;
2021/05/31 01:05:28;;;;;;;6.28;5.55;;;15.3;99.9;;;;;;;;;
2021/05/31 01:05:39;;;;;;;6.6;5.15;;;15.3;99.9;;;;;;;;;
2021/05/31 01:05:55;;;;;;;6.6;5.15;;;15.3;99.9;;;;;;;;;
2021/05/31 01:06:03;;;;;;;6.6;5.15;;;15.3;99.9;;;;;;;;;
2021/05/31 01:06:12;;;;;;;6.6;5.15;;;15.3;99.9;;;;;;;;;
2021/05/31 01:06:17;;;;;;;6.6;5.15;;;15.3;99.9;;;;;;;;;
2021/05/31 01:06:30;;;;;;;6.6;5.15;;;15.3;99.9;;;;;;;;;
2021/05/31 01:06:40;;;;;;;9.27;5.9;;;15.3;99.9;;;;;;;;;
2021/05/31 01:06:56;;;;;;;9.27;5.9;;;15.3;99.9;;;;;;;;;
2021/05/31 01:07:03;;;;;;;9.27;5.9;;;15.3;99.9;;;;;;;;;
2021/05/31 01:07:06;;;;;;;9.27;5.9;;;15.3;99.9;;;;;;;;;
2021/05/31 01:07:16;;;;;;;9.27;5.9;;;15.3;99.9;;;;;;;;;
2021/05/31 01:07:27;;;;;;;9.27;5.9;;;15.3;99.9;;;;;;;;;
2021/05/31 01:07:43;;;;;;;6.53;5.35;;;15.3;99.9;;;;;;;;;
2021/05/31 01:07:52;;;;;;;6.53;5.35;;;15.3;99.9;;;;;;;;;
2021/05/31 01:08:02;;;;;;;6.53;5.35;;;15.3;99.9;;;;;;;;;
2021/05/31 01:08:07;;;;;;;6.53;5.35;;;15.3;99.9;;;;;;;;;
2021/05/31 01:08:18;;;;;;;6.53;5.35;;;15.3;99.9;;;;;;;;;
2021/05/31 01:08:33;;;;;;;6.88;6.18;;;15.3;99.9;;;;;;;;;
2021/05/31 01:08:43;;;;;;;6.88;6.18;;;15.3;99.9;;;;;;;;;
2021/05/31 01:08:53;;;;;;;6.88;6.18;;;15.3;99.9;;;;;;;;;
2021/05/31 01:09:02;;;;;;;6.88;6.18;;;15.3;99.9;;;;;;;;;
2021/05/31 01:09:14;;;;;;;6.88;6.18;;;15.3;99.9;;;;;;;;;
2021/05/31 01:09:26;;;;;;;6.88;6.18;;;15.3;99.9;;;;;;;;;
2021/05/31 01:09:36;;;;;;;8.2;6.63;;;15.3;99.9;;;;;;;;;
2021/05/31 01:09:46;;;;;;;8.2;6.63;;;15.3;99.9;;;;;;;;;
2021/05/31 01:10:00;;;;;;;8.2;6.63;;;15.3;99.9;;;;;;;;;
2021/05/31 01:10:02;;;;;;;8.2;6.63;;;15.3;99.9;;;;;;;;;
2021/05/31 01:10:05;;;;;;;8.2;6.63;;;15.3;99.9;;;;;;;;;
2021/05/31 01:10:15;;;;;;;8.2;6.63;;;15.3;99.9;;;;;;;;;
2021/05/31 01:10:30;;;;;;;8.2;6.63;;;15.3;99.9;;;;;;;;;
2021/05/31 01:10:51;;;;;;;7.47;6.45;;;15.4;99.9;;;;;;;;;
2021/05/31 01:10:56;;;;;;;7.47;6.45;;;15.4;99.9;;;;;;;;;
2021/05/31 01:11:02;;;;;;;7.47;6.45;;;15.4;99.9;;;;;;;;;
2021/05/31 01:11:11;;;;;;;7.47;6.45;;;15.4;99.9;;;;;;;;;
2021/05/31 01:11:22;;;;;;;7.47;6.45;;;15.4;99.9;;;;;;;;;
2021/05/31 01:11:42;;;;;;;8.43;7;;;15.4;99.9;;;;;;;;;
2021/05/31 01:11:52;;;;;;;8.43;7;;;15.4;99.9;;;;;;;;;
2021/05/31 01:12:01;;;;;;;8.43;7;;;15.4;99.9;;;;;;;;;
2021/05/31 01:12:08;;;;;;;8.43;7;;;15.4;99.9;;;;;;;;;
2021/05/31 01:12:18;;;;;;;8.43;7;;;15.4;99.9;;;;;;;;;
2021/05/31 01:12:18;;;;;;;8.43;7;;;15.4;99.9;;;;;;;;;
2021/05/31 01:12:29;;;;;;;8.43;7;;;15.4;99.9;;;;;;;;;
2021/05/31 01:12:49;;;;;;;9.85;6.35;;;15.4;99.9;;;;;;;;;
2021/05/31 01:13:02;;;;;;;9.85;6.35;;;15.4;99.9;;;;;;;;;
2021/05/31 01:13:09;;;;;;;9.85;6.35;;;15.4;99.9;;;;;;;;;
2021/05/31 01:13:09;;;;;;;9.85;6.35;;;15.4;99.9;;;;;;;;;
2021/05/31 01:13:14;;;;;;;9.85;6.35;;;15.4;99.9;;;;;;;;;
2021/05/31 01:13:40;;;;;;;8.35;6.28;;;15.3;99.9;;;;;;;;;
2021/05/31 01:14:00;;;;;;;8.35;6.28;;;15.3;99.9;;;;;;;;;
2021/05/31 01:14:02;;;;;;;8.35;6.28;;;15.3;99.9;;;;;;;;;
2021/05/31 01:14:11;;;;;;;8.35;6.28;;;15.3;99.9;;;;;;;;;
2021/05/31 01:14:21;;;;;;;8.35;6.28;;;15.3;99.9;;;;;;;;;
2021/05/31 01:14:26;;;;;;;8.35;6.28;;;15.3;99.9;;;;;;;;;
2021/05/31 01:14:36;;;;;;;14.07;7.1;;;15.3;99.9;;;;;;;;;
2021/05/31 01:14:42;;;;;;;14.07;7.1;;;15.3;99.9;;;;;;;;;
2021/05/31 01:15:02;;;;;;;14.07;7.1;;;15.3;99.9;;;;;;;;;
2021/05/31 01:15:07;;;;;;;14.07;7.1;;;15.3;99.9;;;;;;;;;
2021/05/31 01:15:17;;;;;;;14.07;7.1;;;15.3;99.9;;;;;;;;;
2021/05/31 01:15:27;;;;;;;14.07;7.1;;;15.3;99.9;;;;;;;;;
2021/05/31 01:15:27;;;;;;;14.07;7.1;;;15.3;99.9;;;;;;;;;
2021/05/31 01:15:53;;;;;;;7.25;6.07;;;15.3;99.9;;;;;;;;;
2021/05/31 01:16:02;;;;;;;7.25;6.07;;;15.3;99.9;;;;;;;;;
2021/05/31 01:16:19;;;;;;;7.25;6.07;;;15.3;99.9;;;;;;;;;
2021/05/31 01:16:19;;;;;;;7.25;6.07;;;15.3;99.9;;;;;;;;;
2021/05/31 01:16:24;;;;;;;7.25;6.07;;;15.3;99.9;;;;;;;;;
2021/05/31 01:16:34;;;;;;;7.43;6.25;;;15.3;99.9;;;;;;;;;